Weather at Herb's Travel Plaza Airstrip [CLOSED]

Public forecast

Using degrees Celsius for public forecast. Weather courtesy of forecast.io.

Closest aviation weather report (METAR) to Herb's Travel Plaza Airstrip

Closest report is Montreal International (Mirabel) Airport, 29.7 nm (55.0 km) ENE.

2024/04/25 08:00 (retrieved 23 minutes ago)

CYMX 250800Z 34003KT 25SM SKC M03/M11 A3033 RMK SLP277

Closest aviation forecast (TAF) to Herb's Travel Plaza Airstrip

Closest forecast is Montreal International (Mirabel) Airport, 29.7 nm (55.0 km) ENE.

2024/04/25 06:42 (retrieved 2 hours ago)

TAF CYMX 250540Z 2506/2606 33007KT P6SM SKC BECMG 2512/2514 23008KT BECMG 2519/2521 29005KT RMK NXT FCST BY 251200Z